sensor_id;sensor_type;location;lat;lon;timestamp;temperature;humidity
21163;DHT22;10739;52.198;20.908;2023-04-19T00:01:08;10.00;99.90
21163;DHT22;10739;52.198;20.908;2023-04-19T00:03:34;10.00;99.90
21163;DHT22;10739;52.198;20.908;2023-04-19T00:06:00;9.90;99.90
21163;DHT22;10739;52.198;20.908;2023-04-19T00:08:27;9.80;99.90
21163;DHT22;10739;52.198;20.908;2023-04-19T00:10:54;9.80;99.90
21163;DHT22;10739;52.198;20.908;2023-04-19T00:13:20;9.80;99.90
21163;DHT22;10739;52.198;20.908;2023-04-19T00:15:46;9.70;99.90
21163;DHT22;10739;52.198;20.908;2023-04-19T00:18:13;9.70;99.90
21163;DHT22;10739;52.198;20.908;2023-04-19T00:20:40;9.60;99.90
21163;DHT22;10739;52.198;20.908;2023-04-19T00:23:06;9.60;99.90
21163;DHT22;10739;52.198;20.908;2023-04-19T00:25:32;9.50;99.90
21163;DHT22;10739;52.198;20.908;2023-04-19T00:27:59;9.50;99.90
21163;DHT22;10739;52.198;20.908;2023-04-19T00:30:25;9.50;99.90
21163;DHT22;10739;52.198;20.908;2023-04-19T00:32:52;9.50;99.90
21163;DHT22;10739;52.198;20.908;2023-04-19T00:35:18;9.40;99.90
21163;DHT22;10739;52.198;20.908;2023-04-19T00:37:45;9.30;99.90
21163;DHT22;10739;52.198;20.908;2023-04-19T00:40:11;9.20;99.90
21163;DHT22;10739;52.198;20.908;2023-04-19T00:42:37;9.10;99.90
21163;DHT22;10739;52.198;20.908;2023-04-19T00:45:04;9.00;99.90
21163;DHT22;10739;52.198;20.908;2023-04-19T00:47:31;8.90;99.90
21163;DHT22;10739;52.198;20.908;2023-04-19T00:49:57;8.70;99.90
21163;DHT22;10739;52.198;20.908;2023-04-19T00:52:24;8.60;99.90
21163;DHT22;10739;52.198;20.908;2023-04-19T00:54:51;8.50;99.90
21163;DHT22;10739;52.198;20.908;2023-04-19T00:57:18;8.40;99.90
21163;DHT22;10739;52.198;20.908;2023-04-19T00:59:45;8.40;99.90
21163;DHT22;10739;52.198;20.908;2023-04-19T01:02:12;8.30;99.90
21163;DHT22;10739;52.198;20.908;2023-04-19T01:04:39;8.30;99.90
21163;DHT22;10739;52.198;20.908;2023-04-19T01:07:05;8.40;99.90
21163;DHT22;10739;52.198;20.908;2023-04-19T01:09:32;8.30;99.90
21163;DHT22;10739;52.198;20.908;2023-04-19T01:12:00;8.40;99.90
21163;DHT22;10739;52.198;20.908;2023-04-19T01:14:28;8.30;99.90
21163;DHT22;10739;52.198;20.908;2023-04-19T01:16:54;8.30;99.90
21163;DHT22;10739;52.198;20.908;2023-04-19T01:19:22;8.20;99.90
21163;DHT22;10739;52.198;20.908;2023-04-19T01:21:48;8.20;99.90
21163;DHT22;10739;52.198;20.908;2023-04-19T01:24:15;8.20;99.90
21163;DHT22;10739;52.198;20.908;2023-04-19T01:26:41;8.20;99.90
21163;DHT22;10739;52.198;20.908;2023-04-19T01:29:07;8.10;99.90
21163;DHT22;10739;52.198;20.908;2023-04-19T01:31:34;8.10;99.90
21163;DHT22;10739;52.198;20.908;2023-04-19T01:34:00;8.10;99.90
21163;DHT22;10739;52.198;20.908;2023-04-19T01:36:26;8.10;99.90
21163;DHT22;10739;52.198;20.908;2023-04-19T01:38:54;8.20;99.90
21163;DHT22;10739;52.198;20.908;2023-04-19T01:41:21;8.20;99.90
21163;DHT22;10739;52.198;20.908;2023-04-19T01:43:51;8.20;99.90
21163;DHT22;10739;52.198;20.908;2023-04-19T01:46:18;8.10;99.90
21163;DHT22;10739;52.198;20.908;2023-04-19T01:48:44;8.20;99.90
21163;DHT22;10739;52.198;20.908;2023-04-19T01:51:10;8.10;99.90
21163;DHT22;10739;52.198;20.908;2023-04-19T01:53:36;8.10;99.90
21163;DHT22;10739;52.198;20.908;2023-04-19T01:56:03;8.10;99.90
21163;DHT22;10739;52.198;20.908;2023-04-19T01:58:29;8.00;99.90
21163;DHT22;10739;52.198;20.908;2023-04-19T02:00:56;8.00;99.90
21163;DHT22;10739;52.198;20.908;2023-04-19T02:03:22;8.00;99.90
21163;DHT22;10739;52.198;20.908;2023-04-19T02:05:48;8.00;99.90
21163;DHT22;10739;52.198;20.908;2023-04-19T02:08:15;8.00;99.90
21163;DHT22;10739;52.198;20.908;2023-04-19T02:10:41;8.00;99.90
21163;DHT22;10739;52.198;20.908;2023-04-19T02:13:07;8.00;99.90
21163;DHT22;10739;52.198;20.908;2023-04-19T02:15:36;7.90;99.90
21163;DHT22;10739;52.198;20.908;2023-04-19T02:18:02;7.90;99.90
21163;DHT22;10739;52.198;20.908;2023-04-19T02:20:31;7.90;99.90
21163;DHT22;10739;52.198;20.908;2023-04-19T02:22:57;7.90;99.90
21163;DHT22;10739;52.198;20.908;2023-04-19T02:25:24;7.90;99.90
21163;DHT22;10739;52.198;20.908;2023-04-19T02:27:50;7.90;99.90
21163;DHT22;10739;52.198;20.908;2023-04-19T02:30:16;8.00;99.90
21163;DHT22;10739;52.198;20.908;2023-04-19T02:32:42;8.00;99.90
21163;DHT22;10739;52.198;20.908;2023-04-19T02:35:09;8.00;99.90
21163;DHT22;10739;52.198;20.908;2023-04-19T02:37:35;8.00;99.90
21163;DHT22;10739;52.198;20.908;2023-04-19T02:40:01;7.90;99.90
21163;DHT22;10739;52.198;20.908;2023-04-19T02:42:30;7.90;99.90
21163;DHT22;10739;52.198;20.908;2023-04-19T02:44:56;8.00;99.90
21163;DHT22;10739;52.198;20.908;2023-04-19T02:47:22;7.90;99.90
21163;DHT22;10739;52.198;20.908;2023-04-19T02:49:48;8.00;99.90
21163;DHT22;10739;52.198;20.908;2023-04-19T02:52:15;7.90;99.90
21163;DHT22;10739;52.198;20.908;2023-04-19T02:54:41;7.90;99.90
21163;DHT22;10739;52.198;20.908;2023-04-19T02:57:07;7.90;99.90
21163;DHT22;10739;52.198;20.908;2023-04-19T02:59:34;7.90;99.90
21163;DHT22;10739;52.198;20.908;2023-04-19T03:02:00;7.90;99.90
21163;DHT22;10739;52.198;20.908;2023-04-19T03:04:26;7.80;99.90
21163;DHT22;10739;52.198;20.908;2023-04-19T03:06:53;7.80;99.90
21163;DHT22;10739;52.198;20.908;2023-04-19T03:09:20;7.80;99.90
21163;DHT22;10739;52.198;20.908;2023-04-19T03:11:46;7.80;99.90
21163;DHT22;10739;52.198;20.908;2023-04-19T03:14:12;7.80;99.90
21163;DHT22;10739;52.198;20.908;2023-04-19T03:16:38;7.80;99.90
21163;DHT22;10739;52.198;20.908;2023-04-19T03:19:05;7.80;99.90
21163;DHT22;10739;52.198;20.908;2023-04-19T03:21:31;7.70;99.90
21163;DHT22;10739;52.198;20.908;2023-04-19T03:23:58;7.70;99.90
21163;DHT22;10739;52.198;20.908;2023-04-19T03:26:24;7.70;99.90
21163;DHT22;10739;52.198;20.908;2023-04-19T03:28:51;7.70;99.90
21163;DHT22;10739;52.198;20.908;2023-04-19T03:31:17;7.70;99.90
21163;DHT22;10739;52.198;20.908;2023-04-19T03:33:43;7.80;99.90
21163;DHT22;10739;52.198;20.908;2023-04-19T03:36:10;7.70;99.90
21163;DHT22;10739;52.198;20.908;2023-04-19T03:38:36;7.70;99.90
21163;DHT22;10739;52.198;20.908;2023-04-19T03:41:03;7.80;99.90
21163;DHT22;10739;52.198;20.908;2023-04-19T03:43:29;7.70;99.90
21163;DHT22;10739;52.198;20.908;2023-04-19T03:45:55;7.70;99.90
21163;DHT22;10739;52.198;20.908;2023-04-19T03:48:21;7.70;99.90
21163;DHT22;10739;52.198;20.908;2023-04-19T03:50:48;7.80;99.90
21163;DHT22;10739;52.198;20.908;2023-04-19T03:53:14;7.70;99.90
21163;DHT22;10739;52.198;20.908;2023-04-19T03:55:40;7.70;99.90
21163;DHT22;10739;52.198;20.908;2023-04-19T03:58:07;7.60;99.90
21163;DHT22;10739;52.198;20.908;2023-04-19T04:00:35;7.60;99.90
21163;DHT22;10739;52.198;20.908;2023-04-19T04:03:01;7.50;99.90
21163;DHT22;10739;52.198;20.908;2023-04-19T04:05:28;7.50;99.90
21163;DHT22;10739;52.198;20.908;2023-04-19T04:07:54;7.50;99.90
21163;DHT22;10739;52.198;20.908;2023-04-19T04:10:21;7.50;99.90
21163;DHT22;10739;52.198;20.908;2023-04-19T04:12:47;7.50;99.90
21163;DHT22;10739;52.198;20.908;2023-04-19T04:15:13;7.40;99.90
21163;DHT22;10739;52.198;20.908;2023-04-19T04:17:40;7.50;99.90
21163;DHT22;10739;52.198;20.908;2023-04-19T04:20:06;7.50;99.90
21163;DHT22;10739;52.198;20.908;2023-04-19T04:22:33;7.40;99.90
21163;DHT22;10739;52.198;20.908;2023-04-19T04:25:00;7.40;99.90
21163;DHT22;10739;52.198;20.908;2023-04-19T04:27:26;7.40;99.90
21163;DHT22;10739;52.198;20.908;2023-04-19T04:29:53;7.40;99.90
21163;DHT22;10739;52.198;20.908;2023-04-19T04:32:21;7.40;99.90
21163;DHT22;10739;52.198;20.908;2023-04-19T04:34:48;7.40;99.90
21163;DHT22;10739;52.198;20.908;2023-04-19T04:37:15;7.40;99.90
21163;DHT22;10739;52.198;20.908;2023-04-19T04:39:42;7.40;99.90
21163;DHT22;10739;52.198;20.908;2023-04-19T04:42:09;7.40;99.90
21163;DHT22;10739;52.198;20.908;2023-04-19T04:44:35;7.40;99.90
21163;DHT22;10739;52.198;20.908;2023-04-19T04:47:03;7.40;99.90
21163;DHT22;10739;52.198;20.908;2023-04-19T04:49:29;7.40;99.90
21163;DHT22;10739;52.198;20.908;2023-04-19T04:51:56;7.40;99.90
21163;DHT22;10739;52.198;20.908;2023-04-19T04:54:22;7.40;99.90
21163;DHT22;10739;52.198;20.908;2023-04-19T04:56:49;7.40;99.90
21163;DHT22;10739;52.198;20.908;2023-04-19T04:59:15;7.40;99.90
21163;DHT22;10739;52.198;20.908;2023-04-19T05:01:41;7.40;99.90
21163;DHT22;10739;52.198;20.908;2023-04-19T05:04:08;7.40;99.90
21163;DHT22;10739;52.198;20.908;2023-04-19T05:06:34;7.30;99.90
21163;DHT22;10739;52.198;20.908;2023-04-19T05:09:00;7.30;99.90
21163;DHT22;10739;52.198;20.908;2023-04-19T05:11:27;7.30;99.90
21163;DHT22;10739;52.198;20.908;2023-04-19T05:13:53;7.30;99.90
21163;DHT22;10739;52.198;20.908;2023-04-19T05:16:19;7.30;99.90
21163;DHT22;10739;52.198;20.908;2023-04-19T05:18:45;7.30;99.90
21163;DHT22;10739;52.198;20.908;2023-04-19T05:21:11;7.30;99.90
21163;DHT22;10739;52.198;20.908;2023-04-19T05:23:38;7.30;99.90
21163;DHT22;10739;52.198;20.908;2023-04-19T05:26:04;7.30;99.90
21163;DHT22;10739;52.198;20.908;2023-04-19T05:28:30;7.30;99.90
21163;DHT22;10739;52.198;20.908;2023-04-19T05:30:57;7.40;99.90
21163;DHT22;10739;52.198;20.908;2023-04-19T05:33:23;7.40;99.90
21163;DHT22;10739;52.198;20.908;2023-04-19T05:35:49;7.40;99.90
21163;DHT22;10739;52.198;20.908;2023-04-19T05:38:16;7.40;99.90
21163;DHT22;10739;52.198;20.908;2023-04-19T05:40:43;7.40;99.90
21163;DHT22;10739;52.198;20.908;2023-04-19T05:43:09;7.40;99.90
21163;DHT22;10739;52.198;20.908;2023-04-19T05:45:36;7.40;99.90
21163;DHT22;10739;52.198;20.908;2023-04-19T05:48:02;7.50;99.90
21163;DHT22;10739;52.198;20.908;2023-04-19T05:50:28;7.50;99.90
21163;DHT22;10739;52.198;20.908;2023-04-19T05:52:55;7.50;99.90
21163;DHT22;10739;52.198;20.908;2023-04-19T05:55:21;7.50;99.90
21163;DHT22;10739;52.198;20.908;2023-04-19T05:57:48;7.50;99.90
21163;DHT22;10739;52.198;20.908;2023-04-19T06:00:15;7.60;99.90
21163;DHT22;10739;52.198;20.908;2023-04-19T06:02:41;7.50;99.90
21163;DHT22;10739;52.198;20.908;2023-04-19T06:05:09;7.50;99.90
21163;DHT22;10739;52.198;20.908;2023-04-19T06:07:35;7.50;99.90
21163;DHT22;10739;52.198;20.908;2023-04-19T06:10:01;7.50;99.90
21163;DHT22;10739;52.198;20.908;2023-04-19T06:12:27;7.50;99.90
21163;DHT22;10739;52.198;20.908;2023-04-19T06:14:54;7.50;99.90
21163;DHT22;10739;52.198;20.908;2023-04-19T06:17:20;7.60;99.90
21163;DHT22;10739;52.198;20.908;2023-04-19T06:19:53;7.50;99.90
21163;DHT22;10739;52.198;20.908;2023-04-19T06:22:20;7.50;99.90
21163;DHT22;10739;52.198;20.908;2023-04-19T06:24:47;7.50;99.90
21163;DHT22;10739;52.198;20.908;2023-04-19T06:27:15;7.50;99.90
21163;DHT22;10739;52.198;20.908;2023-04-19T06:29:42;7.50;99.90
21163;DHT22;10739;52.198;20.908;2023-04-19T06:32:08;7.50;99.90
21163;DHT22;10739;52.198;20.908;2023-04-19T06:34:36;7.50;99.90
21163;DHT22;10739;52.198;20.908;2023-04-19T06:37:02;7.50;99.90
21163;DHT22;10739;52.198;20.908;2023-04-19T06:39:28;7.50;99.90
21163;DHT22;10739;52.198;20.908;2023-04-19T06:41:55;7.50;99.90
21163;DHT22;10739;52.198;20.908;2023-04-19T06:44:21;7.50;99.90
21163;DHT22;10739;52.198;20.908;2023-04-19T06:46:47;7.60;99.90
21163;DHT22;10739;52.198;20.908;2023-04-19T06:49:13;7.60;99.90
21163;DHT22;10739;52.198;20.908;2023-04-19T06:51:40;7.60;99.90
21163;DHT22;10739;52.198;20.908;2023-04-19T06:54:06;7.60;99.90
21163;DHT22;10739;52.198;20.908;2023-04-19T06:56:46;7.60;99.90
21163;DHT22;10739;52.198;20.908;2023-04-19T06:59:18;7.70;99.90
21163;DHT22;10739;52.198;20.908;2023-04-19T07:01:46;7.70;99.90
21163;DHT22;10739;52.198;20.908;2023-04-19T07:04:13;7.70;99.90
21163;DHT22;10739;52.198;20.908;2023-04-19T07:06:40;7.80;99.90
21163;DHT22;10739;52.198;20.908;2023-04-19T07:09:06;7.80;99.90
21163;DHT22;10739;52.198;20.908;2023-04-19T07:11:33;7.90;99.90
21163;DHT22;10739;52.198;20.908;2023-04-19T07:13:59;8.00;99.90
21163;DHT22;10739;52.198;20.908;2023-04-19T07:16:26;8.00;99.90
21163;DHT22;10739;52.198;20.908;2023-04-19T07:18:53;8.00;99.90
21163;DHT22;10739;52.198;20.908;2023-04-19T07:21:19;8.10;99.90
21163;DHT22;10739;52.198;20.908;2023-04-19T07:23:45;8.10;99.90
21163;DHT22;10739;52.198;20.908;2023-04-19T07:26:12;8.20;99.90
21163;DHT22;10739;52.198;20.908;2023-04-19T07:28:39;8.20;99.90
21163;DHT22;10739;52.198;20.908;2023-04-19T07:31:06;8.30;99.90
21163;DHT22;10739;52.198;20.908;2023-04-19T07:33:32;8.30;99.90
21163;DHT22;10739;52.198;20.908;2023-04-19T07:35:58;8.40;99.90
21163;DHT22;10739;52.198;20.908;2023-04-19T07:38:25;8.40;99.90
21163;DHT22;10739;52.198;20.908;2023-04-19T07:40:51;8.40;99.90
21163;DHT22;10739;52.198;20.908;2023-04-19T07:43:18;8.40;99.90
21163;DHT22;10739;52.198;20.908;2023-04-19T07:45:44;8.50;99.90
21163;DHT22;10739;52.198;20.908;2023-04-19T07:48:10;8.50;99.90
21163;DHT22;10739;52.198;20.908;2023-04-19T07:50:37;8.60;99.90
21163;DHT22;10739;52.198;20.908;2023-04-19T07:53:04;8.60;99.90
21163;DHT22;10739;52.198;20.908;2023-04-19T07:55:30;8.70;99.90
21163;DHT22;10739;52.198;20.908;2023-04-19T07:57:57;8.60;99.90
21163;DHT22;10739;52.198;20.908;2023-04-19T08:00:23;8.70;99.90
21163;DHT22;10739;52.198;20.908;2023-04-19T08:02:49;8.60;99.90
21163;DHT22;10739;52.198;20.908;2023-04-19T08:05:16;8.70;99.90
21163;DHT22;10739;52.198;20.908;2023-04-19T08:07:43;8.60;99.90
21163;DHT22;10739;52.198;20.908;2023-04-19T08:10:11;8.60;99.90
21163;DHT22;10739;52.198;20.908;2023-04-19T08:12:37;8.60;99.90
21163;DHT22;10739;52.198;20.908;2023-04-19T08:15:06;8.70;99.90
21163;DHT22;10739;52.198;20.908;2023-04-19T08:17:33;8.70;99.90
21163;DHT22;10739;52.198;20.908;2023-04-19T08:20:00;8.70;99.90
21163;DHT22;10739;52.198;20.908;2023-04-19T08:22:26;8.70;99.90
21163;DHT22;10739;52.198;20.908;2023-04-19T08:24:52;8.70;99.90
21163;DHT22;10739;52.198;20.908;2023-04-19T08:27:20;8.80;99.90
21163;DHT22;10739;52.198;20.908;2023-04-19T08:29:46;8.90;99.90
21163;DHT22;10739;52.198;20.908;2023-04-19T08:32:13;8.90;99.90
21163;DHT22;10739;52.198;20.908;2023-04-19T08:34:39;9.00;99.90
21163;DHT22;10739;52.198;20.908;2023-04-19T08:37:06;9.10;99.90
21163;DHT22;10739;52.198;20.908;2023-04-19T08:39:33;9.40;99.90
21163;DHT22;10739;52.198;20.908;2023-04-19T08:42:09;9.60;99.90
21163;DHT22;10739;52.198;20.908;2023-04-19T08:44:36;10.00;99.90
21163;DHT22;10739;52.198;20.908;2023-04-19T08:47:05;10.30;99.90
21163;DHT22;10739;52.198;20.908;2023-04-19T08:49:35;10.50;99.90
21163;DHT22;10739;52.198;20.908;2023-04-19T08:52:05;10.60;99.90
21163;DHT22;10739;52.198;20.908;2023-04-19T08:54:34;10.40;99.90
21163;DHT22;10739;52.198;20.908;2023-04-19T08:57:01;10.40;99.90
21163;DHT22;10739;52.198;20.908;2023-04-19T08:59:28;10.30;99.90
21163;DHT22;10739;52.198;20.908;2023-04-19T09:01:59;10.10;99.90
21163;DHT22;10739;52.198;20.908;2023-04-19T09:04:26;10.20;99.90
21163;DHT22;10739;52.198;20.908;2023-04-19T09:06:52;10.20;99.90
21163;DHT22;10739;52.198;20.908;2023-04-19T09:09:27;10.20;99.90
21163;DHT22;10739;52.198;20.908;2023-04-19T09:11:55;10.40;99.90
21163;DHT22;10739;52.198;20.908;2023-04-19T09:14:25;10.50;99.90
21163;DHT22;10739;52.198;20.908;2023-04-19T09:16:53;10.60;99.90
21163;DHT22;10739;52.198;20.908;2023-04-19T09:19:19;10.70;99.90
21163;DHT22;10739;52.198;20.908;2023-04-19T09:21:45;10.60;99.90
21163;DHT22;10739;52.198;20.908;2023-04-19T09:24:12;10.50;99.90
21163;DHT22;10739;52.198;20.908;2023-04-19T09:26:39;10.40;99.90
21163;DHT22;10739;52.198;20.908;2023-04-19T09:29:19;10.40;99.90
21163;DHT22;10739;52.198;20.908;2023-04-19T09:31:56;10.40;99.90
21163;DHT22;10739;52.198;20.908;2023-04-19T09:34:23;10.40;99.90
21163;DHT22;10739;52.198;20.908;2023-04-19T09:36:50;10.60;99.90
21163;DHT22;10739;52.198;20.908;2023-04-19T09:39:34;10.70;99.90
21163;DHT22;10739;52.198;20.908;2023-04-19T09:42:01;11.00;99.90
21163;DHT22;10739;52.198;20.908;2023-04-19T09:44:28;11.00;99.90
21163;DHT22;10739;52.198;20.908;2023-04-19T09:46:55;11.00;99.90
21163;DHT22;10739;52.198;20.908;2023-04-19T09:49:24;10.90;99.90
21163;DHT22;10739;52.198;20.908;2023-04-19T09:51:55;10.80;99.90
21163;DHT22;10739;52.198;20.908;2023-04-19T09:54:23;10.80;99.90
21163;DHT22;10739;52.198;20.908;2023-04-19T09:56:53;10.60;99.90
21163;DHT22;10739;52.198;20.908;2023-04-19T09:59:19;10.60;99.90
21163;DHT22;10739;52.198;20.908;2023-04-19T10:01:50;10.50;99.90
21163;DHT22;10739;52.198;20.908;2023-04-19T10:04:22;10.50;99.90
21163;DHT22;10739;52.198;20.908;2023-04-19T10:06:53;10.40;99.90
21163;DHT22;10739;52.198;20.908;2023-04-19T10:09:23;10.40;99.90
21163;DHT22;10739;52.198;20.908;2023-04-19T10:11:52;10.40;99.90
21163;DHT22;10739;52.198;20.908;2023-04-19T10:14:22;10.40;99.90
21163;DHT22;10739;52.198;20.908;2023-04-19T10:16:50;10.40;99.90
21163;DHT22;10739;52.198;20.908;2023-04-19T10:19:21;10.50;99.90
21163;DHT22;10739;52.198;20.908;2023-04-19T10:21:49;10.50;99.90
21163;DHT22;10739;52.198;20.908;2023-04-19T10:24:16;10.50;99.90
21163;DHT22;10739;52.198;20.908;2023-04-19T10:27:10;10.50;99.90
21163;DHT22;10739;52.198;20.908;2023-04-19T10:29:59;10.60;99.90
21163;DHT22;10739;52.198;20.908;2023-04-19T10:32:54;10.60;99.90
21163;DHT22;10739;52.198;20.908;2023-04-19T10:35:33;10.60;99.90
21163;DHT22;10739;52.198;20.908;2023-04-19T10:38:13;10.60;99.90
21163;DHT22;10739;52.198;20.908;2023-04-19T10:43:27;10.50;99.90
21163;DHT22;10739;52.198;20.908;2023-04-19T10:45:58;10.40;99.90
21163;DHT22;10739;52.198;20.908;2023-04-19T10:51:01;10.30;99.90
21163;DHT22;10739;52.198;20.908;2023-04-19T10:56:19;10.30;99.90
21163;DHT22;10739;52.198;20.908;2023-04-19T11:01:48;10.30;99.90
21163;DHT22;10739;52.198;20.908;2023-04-19T11:04:17;10.40;99.90
21163;DHT22;10739;52.198;20.908;2023-04-19T11:09:25;10.40;99.90
21163;DHT22;10739;52.198;20.908;2023-04-19T11:11:52;10.30;99.90
21163;DHT22;10739;52.198;20.908;2023-04-19T11:14:22;10.30;99.90
21163;DHT22;10739;52.198;20.908;2023-04-19T11:16:50;10.30;99.90
21163;DHT22;10739;52.198;20.908;2023-04-19T11:19:17;10.30;99.90
21163;DHT22;10739;52.198;20.908;2023-04-19T11:21:46;10.40;99.90
21163;DHT22;10739;52.198;20.908;2023-04-19T11:24:13;10.40;99.90
21163;DHT22;10739;52.198;20.908;2023-04-19T11:26:46;10.40;99.90
21163;DHT22;10739;52.198;20.908;2023-04-19T11:29:13;10.60;99.90
21163;DHT22;10739;52.198;20.908;2023-04-19T11:31:43;10.70;99.90
21163;DHT22;10739;52.198;20.908;2023-04-19T11:34:11;10.90;99.90
21163;DHT22;10739;52.198;20.908;2023-04-19T11:36:51;11.00;99.90
21163;DHT22;10739;52.198;20.908;2023-04-19T11:39:18;11.20;99.90
21163;DHT22;10739;52.198;20.908;2023-04-19T11:41:44;11.30;99.90
21163;DHT22;10739;52.198;20.908;2023-04-19T11:44:16;11.40;99.90
21163;DHT22;10739;52.198;20.908;2023-04-19T11:47:02;11.50;99.90
21163;DHT22;10739;52.198;20.908;2023-04-19T11:49:32;11.60;99.90
21163;DHT22;10739;52.198;20.908;2023-04-19T11:52:00;11.60;99.90
21163;DHT22;10739;52.198;20.908;2023-04-19T11:54:27;11.60;99.90
21163;DHT22;10739;52.198;20.908;2023-04-19T11:57:01;11.60;99.90
21163;DHT22;10739;52.198;20.908;2023-04-19T11:59:30;11.70;99.90
21163;DHT22;10739;52.198;20.908;2023-04-19T12:02:11;11.60;99.90
21163;DHT22;10739;52.198;20.908;2023-04-19T12:04:38;11.60;99.90
21163;DHT22;10739;52.198;20.908;2023-04-19T12:07:05;11.70;99.90
21163;DHT22;10739;52.198;20.908;2023-04-19T12:09:35;11.90;99.90
21163;DHT22;10739;52.198;20.908;2023-04-19T12:12:02;11.90;99.90
21163;DHT22;10739;52.198;20.908;2023-04-19T12:14:29;12.00;99.90
21163;DHT22;10739;52.198;20.908;2023-04-19T12:17:10;12.20;99.90
21163;DHT22;10739;52.198;20.908;2023-04-19T12:19:46;12.20;99.90
21163;DHT22;10739;52.198;20.908;2023-04-19T12:22:16;12.30;99.90
21163;DHT22;10739;52.198;20.908;2023-04-19T12:24:52;12.10;99.90
21163;DHT22;10739;52.198;20.908;2023-04-19T12:27:18;12.00;99.90
21163;DHT22;10739;52.198;20.908;2023-04-19T12:29:45;12.00;99.90
21163;DHT22;10739;52.198;20.908;2023-04-19T12:32:11;11.90;99.90
21163;DHT22;10739;52.198;20.908;2023-04-19T12:34:39;12.00;99.90
21163;DHT22;10739;52.198;20.908;2023-04-19T12:37:06;11.90;99.90
21163;DHT22;10739;52.198;20.908;2023-04-19T12:39:32;11.90;99.90
21163;DHT22;10739;52.198;20.908;2023-04-19T12:41:58;11.90;99.90
21163;DHT22;10739;52.198;20.908;2023-04-19T12:44:26;11.90;99.90
21163;DHT22;10739;52.198;20.908;2023-04-19T12:46:52;11.80;99.90
21163;DHT22;10739;52.198;20.908;2023-04-19T12:49:22;11.80;99.90
21163;DHT22;10739;52.198;20.908;2023-04-19T12:51:49;11.80;99.90
21163;DHT22;10739;52.198;20.908;2023-04-19T12:54:15;11.80;99.90
21163;DHT22;10739;52.198;20.908;2023-04-19T12:56:42;11.80;99.90
21163;DHT22;10739;52.198;20.908;2023-04-19T12:59:08;11.80;99.90
21163;DHT22;10739;52.198;20.908;2023-04-19T13:01:34;11.80;99.90
21163;DHT22;10739;52.198;20.908;2023-04-19T13:04:00;11.80;99.90
21163;DHT22;10739;52.198;20.908;2023-04-19T13:06:27;11.70;99.90
21163;DHT22;10739;52.198;20.908;2023-04-19T13:08:54;11.70;99.90
21163;DHT22;10739;52.198;20.908;2023-04-19T13:11:20;11.80;99.90
21163;DHT22;10739;52.198;20.908;2023-04-19T13:13:48;12.00;99.90
21163;DHT22;10739;52.198;20.908;2023-04-19T13:16:16;12.10;99.90
21163;DHT22;10739;52.198;20.908;2023-04-19T13:18:42;12.20;99.90
21163;DHT22;10739;52.198;20.908;2023-04-19T13:21:08;12.30;99.90
21163;DHT22;10739;52.198;20.908;2023-04-19T13:23:35;12.40;99.90
21163;DHT22;10739;52.198;20.908;2023-04-19T13:26:01;12.30;99.90
21163;DHT22;10739;52.198;20.908;2023-04-19T13:28:28;12.40;99.90
21163;DHT22;10739;52.198;20.908;2023-04-19T13:30:55;12.50;99.90
21163;DHT22;10739;52.198;20.908;2023-04-19T13:33:21;12.50;99.90
21163;DHT22;10739;52.198;20.908;2023-04-19T13:35:48;12.40;99.90
21163;DHT22;10739;52.198;20.908;2023-04-19T13:38:14;12.40;99.90
21163;DHT22;10739;52.198;20.908;2023-04-19T13:40:40;12.50;99.90
21163;DHT22;10739;52.198;20.908;2023-04-19T13:43:06;12.70;99.90
21163;DHT22;10739;52.198;20.908;2023-04-19T13:45:33;12.80;99.90
21163;DHT22;10739;52.198;20.908;2023-04-19T13:47:59;12.90;99.90
21163;DHT22;10739;52.198;20.908;2023-04-19T13:50:25;12.90;99.90
21163;DHT22;10739;52.198;20.908;2023-04-19T13:52:52;12.90;99.90
21163;DHT22;10739;52.198;20.908;2023-04-19T13:55:18;13.10;99.90
21163;DHT22;10739;52.198;20.908;2023-04-19T13:57:44;13.10;99.90
21163;DHT22;10739;52.198;20.908;2023-04-19T14:00:10;13.20;99.90
21163;DHT22;10739;52.198;20.908;2023-04-19T14:02:37;13.30;99.90
21163;DHT22;10739;52.198;20.908;2023-04-19T14:05:04;13.40;99.90
21163;DHT22;10739;52.198;20.908;2023-04-19T14:07:30;13.40;99.90
21163;DHT22;10739;52.198;20.908;2023-04-19T14:09:57;13.50;99.90
21163;DHT22;10739;52.198;20.908;2023-04-19T14:12:23;13.50;99.90
21163;DHT22;10739;52.198;20.908;2023-04-19T14:14:50;13.50;99.90
21163;DHT22;10739;52.198;20.908;2023-04-19T14:17:16;13.40;99.90
21163;DHT22;10739;52.198;20.908;2023-04-19T14:19:42;13.30;99.90
21163;DHT22;10739;52.198;20.908;2023-04-19T14:22:09;13.40;99.90
21163;DHT22;10739;52.198;20.908;2023-04-19T14:24:35;13.50;99.90
21163;DHT22;10739;52.198;20.908;2023-04-19T14:27:01;13.60;99.90
21163;DHT22;10739;52.198;20.908;2023-04-19T14:29:27;13.60;99.90
21163;DHT22;10739;52.198;20.908;2023-04-19T14:31:54;13.50;99.90
21163;DHT22;10739;52.198;20.908;2023-04-19T14:34:20;13.60;99.90
21163;DHT22;10739;52.198;20.908;2023-04-19T14:36:46;13.40;99.90
21163;DHT22;10739;52.198;20.908;2023-04-19T14:39:13;13.50;99.90
21163;DHT22;10739;52.198;20.908;2023-04-19T14:41:39;13.70;99.90
21163;DHT22;10739;52.198;20.908;2023-04-19T14:44:06;13.90;99.90
21163;DHT22;10739;52.198;20.908;2023-04-19T14:46:32;13.90;99.90
21163;DHT22;10739;52.198;20.908;2023-04-19T14:48:59;13.90;99.90
21163;DHT22;10739;52.198;20.908;2023-04-19T14:51:29;13.90;99.90
21163;DHT22;10739;52.198;20.908;2023-04-19T14:53:56;14.00;99.90
21163;DHT22;10739;52.198;20.908;2023-04-19T14:56:23;14.10;99.90
21163;DHT22;10739;52.198;20.908;2023-04-19T14:58:51;14.10;99.90
21163;DHT22;10739;52.198;20.908;2023-04-19T15:01:18;14.10;99.90
21163;DHT22;10739;52.198;20.908;2023-04-19T15:03:50;14.00;99.90
21163;DHT22;10739;52.198;20.908;2023-04-19T15:06:17;13.90;99.90
21163;DHT22;10739;52.198;20.908;2023-04-19T15:08:43;13.70;99.90
21163;DHT22;10739;52.198;20.908;2023-04-19T15:11:09;13.60;99.90
21163;DHT22;10739;52.198;20.908;2023-04-19T15:13:35;13.60;99.90
21163;DHT22;10739;52.198;20.908;2023-04-19T15:16:02;13.60;99.90
21163;DHT22;10739;52.198;20.908;2023-04-19T15:18:29;13.60;99.90
21163;DHT22;10739;52.198;20.908;2023-04-19T15:20:55;13.50;99.90
21163;DHT22;10739;52.198;20.908;2023-04-19T15:23:23;13.60;99.90
21163;DHT22;10739;52.198;20.908;2023-04-19T15:25:50;13.50;99.90
21163;DHT22;10739;52.198;20.908;2023-04-19T15:28:17;13.60;99.90
21163;DHT22;10739;52.198;20.908;2023-04-19T15:30:43;13.50;99.90
21163;DHT22;10739;52.198;20.908;2023-04-19T15:33:10;13.50;99.90
21163;DHT22;10739;52.198;20.908;2023-04-19T15:35:36;13.30;99.90
21163;DHT22;10739;52.198;20.908;2023-04-19T15:38:02;13.10;99.90
21163;DHT22;10739;52.198;20.908;2023-04-19T15:40:28;13.00;99.90